sensor_id;sensor_type;location;lat;lon;timestamp;P1;durP1;ratioP1;P2;durP2;ratioP2
24559;SDS011;12727;49.934;8.656;2023-08-12T00:01:47;6.78;;;3.60;;
24559;SDS011;12727;49.934;8.656;2023-08-12T00:04:13;8.20;;;3.67;;
24559;SDS011;12727;49.934;8.656;2023-08-12T00:06:40;8.25;;;4.00;;
24559;SDS011;12727;49.934;8.656;2023-08-12T00:09:06;6.38;;;3.38;;
24559;SDS011;12727;49.934;8.656;2023-08-12T00:11:34;8.30;;;3.58;;
24559;SDS011;12727;49.934;8.656;2023-08-12T00:14:00;7.47;;;3.92;;
24559;SDS011;12727;49.934;8.656;2023-08-12T00:16:25;6.45;;;3.60;;
24559;SDS011;12727;49.934;8.656;2023-08-12T00:18:51;6.07;;;3.60;;
24559;SDS011;12727;49.934;8.656;2023-08-12T00:21:16;8.55;;;4.03;;
24559;SDS011;12727;49.934;8.656;2023-08-12T00:23:42;5.95;;;3.65;;
24559;SDS011;12727;49.934;8.656;2023-08-12T00:26:09;7.18;;;3.63;;
24559;SDS011;12727;49.934;8.656;2023-08-12T00:28:35;8.35;;;3.13;;
24559;SDS011;12727;49.934;8.656;2023-08-12T00:31:01;8.60;;;3.67;;
24559;SDS011;12727;49.934;8.656;2023-08-12T00:33:27;5.65;;;3.83;;
24559;SDS011;12727;49.934;8.656;2023-08-12T00:35:53;10.15;;;3.95;;
24559;SDS011;12727;49.934;8.656;2023-08-12T00:38:19;9.10;;;4.22;;
24559;SDS011;12727;49.934;8.656;2023-08-12T00:40:44;5.70;;;3.78;;
24559;SDS011;12727;49.934;8.656;2023-08-12T00:43:10;7.15;;;3.92;;
24559;SDS011;12727;49.934;8.656;2023-08-12T00:45:36;9.73;;;4.20;;
24559;SDS011;12727;49.934;8.656;2023-08-12T00:48:02;5.40;;;3.95;;
24559;SDS011;12727;49.934;8.656;2023-08-12T00:50:28;5.15;;;3.70;;
24559;SDS011;12727;49.934;8.656;2023-08-12T00:52:55;7.65;;;4.50;;
24559;SDS011;12727;49.934;8.656;2023-08-12T00:55:20;7.00;;;4.25;;
24559;SDS011;12727;49.934;8.656;2023-08-12T00:57:46;4.93;;;3.75;;
24559;SDS011;12727;49.934;8.656;2023-08-12T01:00:12;7.78;;;4.28;;
24559;SDS011;12727;49.934;8.656;2023-08-12T01:02:39;8.98;;;4.55;;
24559;SDS011;12727;49.934;8.656;2023-08-12T01:05:05;7.03;;;4.20;;
24559;SDS011;12727;49.934;8.656;2023-08-12T01:07:32;8.30;;;4.07;;
24559;SDS011;12727;49.934;8.656;2023-08-12T01:09:58;7.60;;;3.90;;
24559;SDS011;12727;49.934;8.656;2023-08-12T01:12:29;7.75;;;3.95;;
24559;SDS011;12727;49.934;8.656;2023-08-12T01:17:31;5.80;;;4.40;;
24559;SDS011;12727;49.934;8.656;2023-08-12T01:19:59;7.03;;;4.30;;
24559;SDS011;12727;49.934;8.656;2023-08-12T01:22:27;8.68;;;3.78;;
24559;SDS011;12727;49.934;8.656;2023-08-12T01:24:54;9.70;;;4.18;;
24559;SDS011;12727;49.934;8.656;2023-08-12T01:27:20;5.97;;;4.10;;
24559;SDS011;12727;49.934;8.656;2023-08-12T01:29:50;5.00;;;3.80;;
24559;SDS011;12727;49.934;8.656;2023-08-12T01:37:26;5.28;;;4.18;;
24559;SDS011;12727;49.934;8.656;2023-08-12T01:39:54;9.40;;;4.18;;
24559;SDS011;12727;49.934;8.656;2023-08-12T01:42:21;7.35;;;3.75;;
24559;SDS011;12727;49.934;8.656;2023-08-12T01:44:48;7.70;;;3.95;;
24559;SDS011;12727;49.934;8.656;2023-08-12T01:47:16;8.88;;;4.40;;
24559;SDS011;12727;49.934;8.656;2023-08-12T01:49:42;8.55;;;4.15;;
24559;SDS011;12727;49.934;8.656;2023-08-12T01:52:08;7.20;;;4.00;;
24559;SDS011;12727;49.934;8.656;2023-08-12T01:54:34;7.93;;;4.40;;
24559;SDS011;12727;49.934;8.656;2023-08-12T01:57:03;5.88;;;4.20;;
24559;SDS011;12727;49.934;8.656;2023-08-12T01:59:36;7.75;;;3.70;;
24559;SDS011;12727;49.934;8.656;2023-08-12T02:02:03;4.75;;;4.20;;
24559;SDS011;12727;49.934;8.656;2023-08-12T02:04:29;5.65;;;4.32;;
24559;SDS011;12727;49.934;8.656;2023-08-12T02:06:54;6.72;;;4.40;;
24559;SDS011;12727;49.934;8.656;2023-08-12T02:09:20;6.97;;;4.20;;
24559;SDS011;12727;49.934;8.656;2023-08-12T02:11:47;4.68;;;3.78;;
24559;SDS011;12727;49.934;8.656;2023-08-12T02:14:13;7.13;;;4.13;;
24559;SDS011;12727;49.934;8.656;2023-08-12T02:16:39;7.85;;;4.22;;
24559;SDS011;12727;49.934;8.656;2023-08-12T02:19:04;4.85;;;3.92;;
24559;SDS011;12727;49.934;8.656;2023-08-12T02:21:30;4.53;;;3.60;;
24559;SDS011;12727;49.934;8.656;2023-08-12T02:23:55;6.22;;;4.07;;
24559;SDS011;12727;49.934;8.656;2023-08-12T02:26:21;6.88;;;4.15;;
24559;SDS011;12727;49.934;8.656;2023-08-12T02:28:46;7.25;;;3.90;;
24559;SDS011;12727;49.934;8.656;2023-08-12T02:31:12;4.95;;;4.07;;
24559;SDS011;12727;49.934;8.656;2023-08-12T02:33:39;5.50;;;3.50;;
24559;SDS011;12727;49.934;8.656;2023-08-12T02:36:04;7.78;;;4.10;;
24559;SDS011;12727;49.934;8.656;2023-08-12T02:38:30;9.25;;;4.13;;
24559;SDS011;12727;49.934;8.656;2023-08-12T02:40:55;4.55;;;3.70;;
24559;SDS011;12727;49.934;8.656;2023-08-12T02:43:21;5.88;;;3.83;;
24559;SDS011;12727;49.934;8.656;2023-08-12T02:45:46;9.63;;;4.55;;
24559;SDS011;12727;49.934;8.656;2023-08-12T02:48:12;8.95;;;3.90;;
24559;SDS011;12727;49.934;8.656;2023-08-12T02:50:38;9.73;;;4.68;;
24559;SDS011;12727;49.934;8.656;2023-08-12T02:53:04;5.82;;;4.10;;
24559;SDS011;12727;49.934;8.656;2023-08-12T02:55:30;7.90;;;4.70;;
24559;SDS011;12727;49.934;8.656;2023-08-12T02:57:59;7.35;;;4.85;;
24559;SDS011;12727;49.934;8.656;2023-08-12T03:00:25;7.63;;;5.38;;
24559;SDS011;12727;49.934;8.656;2023-08-12T03:02:52;8.18;;;6.00;;
24559;SDS011;12727;49.934;8.656;2023-08-12T03:05:18;10.23;;;6.45;;
24559;SDS011;12727;49.934;8.656;2023-08-12T03:07:43;7.75;;;6.60;;
24559;SDS011;12727;49.934;8.656;2023-08-12T03:10:09;8.18;;;7.38;;
24559;SDS011;12727;49.934;8.656;2023-08-12T03:12:35;13.23;;;7.75;;
24559;SDS011;12727;49.934;8.656;2023-08-12T03:15:01;10.35;;;7.45;;
24559;SDS011;12727;49.934;8.656;2023-08-12T03:17:27;11.05;;;7.82;;
24559;SDS011;12727;49.934;8.656;2023-08-12T03:19:53;10.38;;;6.03;;
24559;SDS011;12727;49.934;8.656;2023-08-12T03:22:19;10.35;;;6.78;;
24559;SDS011;12727;49.934;8.656;2023-08-12T03:24:45;8.70;;;6.75;;
24559;SDS011;12727;49.934;8.656;2023-08-12T03:27:11;10.60;;;7.63;;
24559;SDS011;12727;49.934;8.656;2023-08-12T03:29:37;11.93;;;8.40;;
24559;SDS011;12727;49.934;8.656;2023-08-12T03:32:02;11.27;;;9.30;;
24559;SDS011;12727;49.934;8.656;2023-08-12T03:34:28;10.80;;;7.88;;
24559;SDS011;12727;49.934;8.656;2023-08-12T03:36:57;10.05;;;7.55;;
24559;SDS011;12727;49.934;8.656;2023-08-12T03:39:22;13.02;;;9.40;;
24559;SDS011;12727;49.934;8.656;2023-08-12T03:41:48;14.77;;;9.95;;
24559;SDS011;12727;49.934;8.656;2023-08-12T03:44:15;12.27;;;9.80;;
24559;SDS011;12727;49.934;8.656;2023-08-12T03:46:41;12.75;;;10.30;;
24559;SDS011;12727;49.934;8.656;2023-08-12T03:49:06;12.13;;;9.45;;
24559;SDS011;12727;49.934;8.656;2023-08-12T03:51:32;12.27;;;9.45;;
24559;SDS011;12727;49.934;8.656;2023-08-12T03:53:58;12.18;;;9.18;;
24559;SDS011;12727;49.934;8.656;2023-08-12T03:56:23;17.02;;;9.40;;
24559;SDS011;12727;49.934;8.656;2023-08-12T03:58:51;14.00;;;9.95;;
24559;SDS011;12727;49.934;8.656;2023-08-12T04:01:17;11.88;;;9.90;;
24559;SDS011;12727;49.934;8.656;2023-08-12T04:03:42;11.60;;;10.40;;
24559;SDS011;12727;49.934;8.656;2023-08-12T04:06:08;13.88;;;10.20;;
24559;SDS011;12727;49.934;8.656;2023-08-12T04:08:34;17.33;;;11.70;;
24559;SDS011;12727;49.934;8.656;2023-08-12T04:11:00;16.40;;;9.77;;
24559;SDS011;12727;49.934;8.656;2023-08-12T04:13:26;12.63;;;10.00;;
24559;SDS011;12727;49.934;8.656;2023-08-12T04:15:51;14.38;;;10.48;;
24559;SDS011;12727;49.934;8.656;2023-08-12T04:18:20;12.07;;;10.50;;
24559;SDS011;12727;49.934;8.656;2023-08-12T04:20:50;14.88;;;10.82;;
24559;SDS011;12727;49.934;8.656;2023-08-12T04:23:17;14.70;;;10.98;;
24559;SDS011;12727;49.934;8.656;2023-08-12T04:25:43;15.30;;;10.98;;
24559;SDS011;12727;49.934;8.656;2023-08-12T04:28:10;14.60;;;11.60;;
24559;SDS011;12727;49.934;8.656;2023-08-12T04:30:40;13.52;;;12.23;;
24559;SDS011;12727;49.934;8.656;2023-08-12T04:33:13;13.60;;;12.13;;
24559;SDS011;12727;49.934;8.656;2023-08-12T04:35:39;13.63;;;12.18;;
24559;SDS011;12727;49.934;8.656;2023-08-12T04:38:06;14.98;;;12.93;;
24559;SDS011;12727;49.934;8.656;2023-08-12T04:40:32;15.10;;;12.30;;
24559;SDS011;12727;49.934;8.656;2023-08-12T04:42:58;15.65;;;12.20;;
24559;SDS011;12727;49.934;8.656;2023-08-12T04:45:24;19.02;;;12.18;;
24559;SDS011;12727;49.934;8.656;2023-08-12T04:47:49;14.05;;;11.50;;
24559;SDS011;12727;49.934;8.656;2023-08-12T04:50:15;13.48;;;11.18;;
24559;SDS011;12727;49.934;8.656;2023-08-12T04:52:41;16.27;;;11.32;;
24559;SDS011;12727;49.934;8.656;2023-08-12T04:55:06;15.00;;;11.05;;
24559;SDS011;12727;49.934;8.656;2023-08-12T04:57:32;12.88;;;11.05;;
24559;SDS011;12727;49.934;8.656;2023-08-12T04:59:58;16.25;;;11.93;;
24559;SDS011;12727;49.934;8.656;2023-08-12T05:02:24;13.93;;;11.27;;
24559;SDS011;12727;49.934;8.656;2023-08-12T05:04:50;15.73;;;10.90;;
24559;SDS011;12727;49.934;8.656;2023-08-12T05:07:16;13.88;;;10.80;;
24559;SDS011;12727;49.934;8.656;2023-08-12T05:09:42;13.70;;;11.75;;
24559;SDS011;12727;49.934;8.656;2023-08-12T05:12:09;15.95;;;11.10;;
24559;SDS011;12727;49.934;8.656;2023-08-12T05:14:38;16.35;;;11.57;;
24559;SDS011;12727;49.934;8.656;2023-08-12T05:17:05;12.82;;;11.27;;
24559;SDS011;12727;49.934;8.656;2023-08-12T05:19:30;13.43;;;10.05;;
24559;SDS011;12727;49.934;8.656;2023-08-12T05:21:56;14.02;;;10.70;;
24559;SDS011;12727;49.934;8.656;2023-08-12T05:24:22;13.57;;;10.90;;
24559;SDS011;12727;49.934;8.656;2023-08-12T05:26:48;12.75;;;11.48;;
24559;SDS011;12727;49.934;8.656;2023-08-12T05:29:13;15.13;;;12.13;;
24559;SDS011;12727;49.934;8.656;2023-08-12T05:31:39;16.08;;;12.18;;
24559;SDS011;12727;49.934;8.656;2023-08-12T05:34:04;15.73;;;11.57;;
24559;SDS011;12727;49.934;8.656;2023-08-12T05:36:30;14.88;;;11.27;;
24559;SDS011;12727;49.934;8.656;2023-08-12T05:38:56;12.32;;;10.90;;
24559;SDS011;12727;49.934;8.656;2023-08-12T05:41:21;17.60;;;11.07;;
24559;SDS011;12727;49.934;8.656;2023-08-12T05:43:47;14.55;;;11.50;;
24559;SDS011;12727;49.934;8.656;2023-08-12T05:46:13;14.13;;;11.00;;
24559;SDS011;12727;49.934;8.656;2023-08-12T05:48:39;15.05;;;10.88;;
24559;SDS011;12727;49.934;8.656;2023-08-12T05:51:04;15.00;;;10.70;;
24559;SDS011;12727;49.934;8.656;2023-08-12T05:53:30;14.60;;;10.88;;
24559;SDS011;12727;49.934;8.656;2023-08-12T05:55:57;14.45;;;10.90;;
24559;SDS011;12727;49.934;8.656;2023-08-12T05:58:22;14.73;;;11.13;;
24559;SDS011;12727;49.934;8.656;2023-08-12T06:00:48;14.95;;;10.52;;
24559;SDS011;12727;49.934;8.656;2023-08-12T06:03:13;13.00;;;10.57;;
24559;SDS011;12727;49.934;8.656;2023-08-12T06:05:40;12.75;;;10.50;;
24559;SDS011;12727;49.934;8.656;2023-08-12T06:08:06;11.63;;;9.88;;
24559;SDS011;12727;49.934;8.656;2023-08-12T06:10:32;12.18;;;9.38;;
24559;SDS011;12727;49.934;8.656;2023-08-12T06:12:58;12.95;;;8.88;;
24559;SDS011;12727;49.934;8.656;2023-08-12T06:15:24;13.82;;;8.88;;
24559;SDS011;12727;49.934;8.656;2023-08-12T06:17:50;12.63;;;9.32;;
24559;SDS011;12727;49.934;8.656;2023-08-12T06:20:15;13.00;;;8.65;;
24559;SDS011;12727;49.934;8.656;2023-08-12T06:22:41;11.48;;;8.38;;
24559;SDS011;12727;49.934;8.656;2023-08-12T06:25:07;11.90;;;8.43;;
24559;SDS011;12727;49.934;8.656;2023-08-12T06:27:33;9.95;;;8.23;;
24559;SDS011;12727;49.934;8.656;2023-08-12T06:29:58;11.38;;;8.07;;
24559;SDS011;12727;49.934;8.656;2023-08-12T06:32:24;8.65;;;7.68;;
24559;SDS011;12727;49.934;8.656;2023-08-12T06:34:49;11.02;;;8.15;;
24559;SDS011;12727;49.934;8.656;2023-08-12T06:37:15;13.32;;;7.82;;
24559;SDS011;12727;49.934;8.656;2023-08-12T06:39:41;10.13;;;8.18;;
24559;SDS011;12727;49.934;8.656;2023-08-12T06:42:06;10.55;;;7.38;;
24559;SDS011;12727;49.934;8.656;2023-08-12T06:44:32;9.18;;;7.30;;
24559;SDS011;12727;49.934;8.656;2023-08-12T06:46:57;11.35;;;7.70;;
24559;SDS011;12727;49.934;8.656;2023-08-12T06:49:23;8.43;;;6.88;;
24559;SDS011;12727;49.934;8.656;2023-08-12T06:51:48;8.73;;;6.82;;
24559;SDS011;12727;49.934;8.656;2023-08-12T06:54:14;6.88;;;5.85;;
24559;SDS011;12727;49.934;8.656;2023-08-12T06:56:39;7.93;;;6.65;;
24559;SDS011;12727;49.934;8.656;2023-08-12T06:59:05;8.32;;;6.20;;
24559;SDS011;12727;49.934;8.656;2023-08-12T07:01:30;8.95;;;5.82;;
24559;SDS011;12727;49.934;8.656;2023-08-12T07:03:57;7.88;;;5.82;;
24559;SDS011;12727;49.934;8.656;2023-08-12T07:06:22;7.85;;;5.80;;
24559;SDS011;12727;49.934;8.656;2023-08-12T07:08:48;7.03;;;6.32;;
24559;SDS011;12727;49.934;8.656;2023-08-12T07:11:13;8.68;;;5.80;;
24559;SDS011;12727;49.934;8.656;2023-08-12T07:13:39;7.70;;;5.15;;
24559;SDS011;12727;49.934;8.656;2023-08-12T07:16:04;6.28;;;5.63;;
24559;SDS011;12727;49.934;8.656;2023-08-12T07:18:30;8.38;;;5.40;;
24559;SDS011;12727;49.934;8.656;2023-08-12T07:20:56;8.60;;;6.03;;
24559;SDS011;12727;49.934;8.656;2023-08-12T07:23:23;8.57;;;5.60;;
24559;SDS011;12727;49.934;8.656;2023-08-12T07:25:49;7.22;;;5.40;;
24559;SDS011;12727;49.934;8.656;2023-08-12T07:28:14;7.65;;;5.82;;
24559;SDS011;12727;49.934;8.656;2023-08-12T07:30:40;9.00;;;5.88;;
24559;SDS011;12727;49.934;8.656;2023-08-12T07:33:05;6.85;;;5.25;;
24559;SDS011;12727;49.934;8.656;2023-08-12T07:35:31;7.60;;;5.68;;
24559;SDS011;12727;49.934;8.656;2023-08-12T07:37:57;8.50;;;6.20;;
24559;SDS011;12727;49.934;8.656;2023-08-12T07:40:23;8.32;;;5.65;;
24559;SDS011;12727;49.934;8.656;2023-08-12T07:42:48;6.57;;;5.88;;
24559;SDS011;12727;49.934;8.656;2023-08-12T07:45:14;11.30;;;6.35;;
24559;SDS011;12727;49.934;8.656;2023-08-12T07:47:39;7.72;;;5.85;;
24559;SDS011;12727;49.934;8.656;2023-08-12T07:50:05;6.47;;;5.20;;
24559;SDS011;12727;49.934;8.656;2023-08-12T07:52:31;9.82;;;5.50;;
24559;SDS011;12727;49.934;8.656;2023-08-12T07:54:57;8.60;;;6.10;;
24559;SDS011;12727;49.934;8.656;2023-08-12T07:57:22;8.20;;;6.18;;
24559;SDS011;12727;49.934;8.656;2023-08-12T07:59:50;8.32;;;5.45;;
24559;SDS011;12727;49.934;8.656;2023-08-12T08:02:16;17.60;;;8.52;;
24559;SDS011;12727;49.934;8.656;2023-08-12T08:04:42;9.30;;;6.88;;
24559;SDS011;12727;49.934;8.656;2023-08-12T08:07:08;11.68;;;7.82;;
24559;SDS011;12727;49.934;8.656;2023-08-12T08:09:34;13.35;;;6.95;;
24559;SDS011;12727;49.934;8.656;2023-08-12T08:12:00;9.48;;;7.45;;
24559;SDS011;12727;49.934;8.656;2023-08-12T08:14:26;9.88;;;7.13;;
24559;SDS011;12727;49.934;8.656;2023-08-12T08:16:52;8.32;;;7.53;;
24559;SDS011;12727;49.934;8.656;2023-08-12T08:19:18;9.95;;;7.90;;
24559;SDS011;12727;49.934;8.656;2023-08-12T08:21:43;14.18;;;9.13;;
24559;SDS011;12727;49.934;8.656;2023-08-12T08:24:09;10.27;;;8.23;;
24559;SDS011;12727;49.934;8.656;2023-08-12T08:26:37;10.70;;;8.68;;
24559;SDS011;12727;49.934;8.656;2023-08-12T08:29:05;11.93;;;8.00;;
24559;SDS011;12727;49.934;8.656;2023-08-12T08:31:31;11.63;;;8.02;;
24559;SDS011;12727;49.934;8.656;2023-08-12T08:33:57;9.90;;;7.82;;
24559;SDS011;12727;49.934;8.656;2023-08-12T08:36:23;8.68;;;7.72;;
24559;SDS011;12727;49.934;8.656;2023-08-12T08:38:49;9.80;;;8.45;;
24559;SDS011;12727;49.934;8.656;2023-08-12T08:41:16;11.50;;;8.57;;
24559;SDS011;12727;49.934;8.656;2023-08-12T08:43:42;10.52;;;8.23;;
24559;SDS011;12727;49.934;8.656;2023-08-12T08:46:12;11.48;;;8.57;;
24559;SDS011;12727;49.934;8.656;2023-08-12T08:48:41;9.63;;;8.63;;
24559;SDS011;12727;49.934;8.656;2023-08-12T08:51:08;13.85;;;9.60;;
24559;SDS011;12727;49.934;8.656;2023-08-12T08:53:38;9.32;;;8.05;;
24559;SDS011;12727;49.934;8.656;2023-08-12T08:56:05;12.27;;;8.13;;
24559;SDS011;12727;49.934;8.656;2023-08-12T08:58:33;10.57;;;8.32;;
24559;SDS011;12727;49.934;8.656;2023-08-12T09:00:59;11.85;;;8.02;;
24559;SDS011;12727;49.934;8.656;2023-08-12T09:03:25;16.42;;;10.02;;
24559;SDS011;12727;49.934;8.656;2023-08-12T09:05:51;13.50;;;7.80;;
24559;SDS011;12727;49.934;8.656;2023-08-12T09:08:20;13.10;;;8.43;;
24559;SDS011;12727;49.934;8.656;2023-08-12T09:10:46;13.55;;;8.80;;
24559;SDS011;12727;49.934;8.656;2023-08-12T09:13:13;8.57;;;7.68;;
24559;SDS011;12727;49.934;8.656;2023-08-12T09:15:40;9.30;;;7.65;;
24559;SDS011;12727;49.934;8.656;2023-08-12T09:18:06;11.20;;;8.13;;
24559;SDS011;12727;49.934;8.656;2023-08-12T09:20:32;10.25;;;7.68;;
24559;SDS011;12727;49.934;8.656;2023-08-12T09:22:58;8.55;;;7.50;;
24559;SDS011;12727;49.934;8.656;2023-08-12T09:25:25;10.32;;;7.90;;
24559;SDS011;12727;49.934;8.656;2023-08-12T09:27:53;12.38;;;9.45;;
24559;SDS011;12727;49.934;8.656;2023-08-12T09:30:20;10.77;;;9.13;;
24559;SDS011;12727;49.934;8.656;2023-08-12T09:32:57;10.35;;;8.80;;
24559;SDS011;12727;49.934;8.656;2023-08-12T09:35:35;10.45;;;8.60;;
24559;SDS011;12727;49.934;8.656;2023-08-12T09:38:10;9.60;;;8.02;;
24559;SDS011;12727;49.934;8.656;2023-08-12T09:40:38;10.48;;;7.88;;
24559;SDS011;12727;49.934;8.656;2023-08-12T09:43:04;12.35;;;8.15;;
24559;SDS011;12727;49.934;8.656;2023-08-12T09:45:30;9.80;;;7.75;;
24559;SDS011;12727;49.934;8.656;2023-08-12T09:47:57;12.10;;;7.13;;
24559;SDS011;12727;49.934;8.656;2023-08-12T09:50:26;7.63;;;6.15;;
24559;SDS011;12727;49.934;8.656;2023-08-12T09:52:53;12.90;;;7.68;;
24559;SDS011;12727;49.934;8.656;2023-08-12T09:55:21;12.00;;;8.27;;
24559;SDS011;12727;49.934;8.656;2023-08-12T09:57:48;9.55;;;7.82;;
24559;SDS011;12727;49.934;8.656;2023-08-12T10:00:19;12.27;;;7.85;;
24559;SDS011;12727;49.934;8.656;2023-08-12T10:02:47;11.15;;;8.13;;
24559;SDS011;12727;49.934;8.656;2023-08-12T10:05:32;8.85;;;7.43;;
24559;SDS011;12727;49.934;8.656;2023-08-12T10:07:59;13.95;;;8.30;;
24559;SDS011;12727;49.934;8.656;2023-08-12T10:10:28;9.77;;;6.60;;
24559;SDS011;12727;49.934;8.656;2023-08-12T10:12:55;8.23;;;6.82;;
24559;SDS011;12727;49.934;8.656;2023-08-12T10:15:21;9.20;;;7.07;;
24559;SDS011;12727;49.934;8.656;2023-08-12T10:17:47;9.13;;;7.10;;
24559;SDS011;12727;49.934;8.656;2023-08-12T10:20:20;9.30;;;7.45;;
24559;SDS011;12727;49.934;8.656;2023-08-12T10:22:47;9.43;;;6.00;;
24559;SDS011;12727;49.934;8.656;2023-08-12T10:25:14;14.20;;;6.95;;
24559;SDS011;12727;49.934;8.656;2023-08-12T10:27:40;17.52;;;8.60;;
24559;SDS011;12727;49.934;8.656;2023-08-12T10:30:06;14.15;;;9.35;;
24559;SDS011;12727;49.934;8.656;2023-08-12T10:32:33;12.07;;;7.22;;
24559;SDS011;12727;49.934;8.656;2023-08-12T10:34:59;12.95;;;7.60;;
24559;SDS011;12727;49.934;8.656;2023-08-12T10:37:25;12.38;;;8.60;;
24559;SDS011;12727;49.934;8.656;2023-08-12T10:39:52;10.70;;;8.90;;
24559;SDS011;12727;49.934;8.656;2023-08-12T10:45:17;17.20;;;8.85;;
24559;SDS011;12727;49.934;8.656;2023-08-12T10:48:02;11.20;;;8.80;;
24559;SDS011;12727;49.934;8.656;2023-08-12T10:50:43;8.70;;;6.82;;
24559;SDS011;12727;49.934;8.656;2023-08-12T10:53:20;11.57;;;6.15;;
24559;SDS011;12727;49.934;8.656;2023-08-12T10:55:56;8.00;;;4.82;;
24559;SDS011;12727;49.934;8.656;2023-08-12T11:01:08;8.73;;;4.32;;
24559;SDS011;12727;49.934;8.656;2023-08-12T11:03:38;7.28;;;4.57;;
24559;SDS011;12727;49.934;8.656;2023-08-12T11:06:07;6.20;;;4.00;;
24559;SDS011;12727;49.934;8.656;2023-08-12T11:08:35;6.03;;;3.97;;
24559;SDS011;12727;49.934;8.656;2023-08-12T11:11:01;4.13;;;3.38;;
24559;SDS011;12727;49.934;8.656;2023-08-12T11:13:27;5.75;;;3.28;;
24559;SDS011;12727;49.934;8.656;2023-08-12T11:15:54;11.23;;;3.65;;
24559;SDS011;12727;49.934;8.656;2023-08-12T11:18:31;5.55;;;3.30;;
24559;SDS011;12727;49.934;8.656;2023-08-12T11:20:57;3.47;;;2.92;;
24559;SDS011;12727;49.934;8.656;2023-08-12T11:23:24;6.20;;;3.28;;
24559;SDS011;12727;49.934;8.656;2023-08-12T11:25:49;3.92;;;3.45;;
24559;SDS011;12727;49.934;8.656;2023-08-12T11:28:17;4.75;;;3.17;;
24559;SDS011;12727;49.934;8.656;2023-08-12T11:30:44;6.15;;;3.40;;
24559;SDS011;12727;49.934;8.656;2023-08-12T11:33:10;4.82;;;2.72;;
24559;SDS011;12727;49.934;8.656;2023-08-12T11:35:37;5.85;;;3.15;;
24559;SDS011;12727;49.934;8.656;2023-08-12T11:38:03;5.03;;;3.45;;
24559;SDS011;12727;49.934;8.656;2023-08-12T11:40:30;8.60;;;3.78;;
24559;SDS011;12727;49.934;8.656;2023-08-12T11:42:56;11.43;;;3.33;;
24559;SDS011;12727;49.934;8.656;2023-08-12T11:45:25;5.28;;;3.20;;
24559;SDS011;12727;49.934;8.656;2023-08-12T11:47:52;5.88;;;3.33;;
24559;SDS011;12727;49.934;8.656;2023-08-12T11:50:18;5.32;;;3.58;;
24559;SDS011;12727;49.934;8.656;2023-08-12T11:52:52;4.63;;;3.00;;
24559;SDS011;12727;49.934;8.656;2023-08-12T11:55:18;5.40;;;2.97;;
24559;SDS011;12727;49.934;8.656;2023-08-12T11:57:47;5.30;;;2.97;;
24559;SDS011;12727;49.934;8.656;2023-08-12T12:00:13;5.22;;;2.75;;
24559;SDS011;12727;49.934;8.656;2023-08-12T12:02:41;3.50;;;2.50;;
24559;SDS011;12727;49.934;8.656;2023-08-12T12:05:15;3.67;;;2.78;;
24559;SDS011;12727;49.934;8.656;2023-08-12T12:07:41;5.22;;;2.97;;
24559;SDS011;12727;49.934;8.656;2023-08-12T12:10:12;4.57;;;3.50;;
24559;SDS011;12727;49.934;8.656;2023-08-12T12:12:38;8.35;;;3.92;;
24559;SDS011;12727;49.934;8.656;2023-08-12T12:15:04;5.68;;;3.05;;
24559;SDS011;12727;49.934;8.656;2023-08-12T12:17:30;5.78;;;3.83;;
24559;SDS011;12727;49.934;8.656;2023-08-12T12:19:59;7.80;;;3.40;;
24559;SDS011;12727;49.934;8.656;2023-08-12T12:22:26;6.03;;;3.92;;
24559;SDS011;12727;49.934;8.656;2023-08-12T12:24:53;4.28;;;3.38;;
24559;SDS011;12727;49.934;8.656;2023-08-12T12:27:19;5.63;;;3.63;;
24559;SDS011;12727;49.934;8.656;2023-08-12T12:29:44;5.95;;;3.25;;
24559;SDS011;12727;49.934;8.656;2023-08-12T12:32:10;4.15;;;3.38;;
24559;SDS011;12727;49.934;8.656;2023-08-12T12:34:36;4.45;;;3.42;;
24559;SDS011;12727;49.934;8.656;2023-08-12T12:37:01;4.53;;;3.38;;
24559;SDS011;12727;49.934;8.656;2023-08-12T12:39:27;4.28;;;2.80;;
24559;SDS011;12727;49.934;8.656;2023-08-12T12:41:53;4.95;;;2.80;;
24559;SDS011;12727;49.934;8.656;2023-08-12T12:44:18;3.85;;;2.60;;
24559;SDS011;12727;49.934;8.656;2023-08-12T12:46:44;10.38;;;4.55;;
24559;SDS011;12727;49.934;8.656;2023-08-12T12:49:10;5.90;;;3.53;;
24559;SDS011;12727;49.934;8.656;2023-08-12T12:51:35;6.60;;;3.75;;
24559;SDS011;12727;49.934;8.656;2023-08-12T12:54:01;25.75;;;12.43;;
24559;SDS011;12727;49.934;8.656;2023-08-12T12:56:27;6.03;;;3.53;;
24559;SDS011;12727;49.934;8.656;2023-08-12T12:58:53;4.60;;;2.03;;
24559;SDS011;12727;49.934;8.656;2023-08-12T13:01:18;1.85;;;1.50;;
24559;SDS011;12727;49.934;8.656;2023-08-12T13:03:44;5.63;;;2.33;;
24559;SDS011;12727;49.934;8.656;2023-08-12T13:06:09;2.15;;;1.40;;
24559;SDS011;12727;49.934;8.656;2023-08-12T13:08:35;3.58;;;2.30;;
24559;SDS011;12727;49.934;8.656;2023-08-12T13:11:00;2.95;;;1.55;;
24559;SDS011;12727;49.934;8.656;2023-08-12T13:13:26;3.35;;;1.30;;
24559;SDS011;12727;49.934;8.656;2023-08-12T13:15:52;2.10;;;1.20;;
24559;SDS011;12727;49.934;8.656;2023-08-12T13:18:17;2.28;;;1.45;;
24559;SDS011;12727;49.934;8.656;2023-08-12T13:20:43;1.92;;;1.25;;
24559;SDS011;12727;49.934;8.656;2023-08-12T13:23:08;2.63;;;1.48;;
24559;SDS011;12727;49.934;8.656;2023-08-12T13:25:34;3.35;;;2.35;;
24559;SDS011;12727;49.934;8.656;2023-08-12T13:28:00;2.22;;;1.60;;
24559;SDS011;12727;49.934;8.656;2023-08-12T13:30:27;3.58;;;1.60;;
24559;SDS011;12727;49.934;8.656;2023-08-12T13:32:53;2.28;;;1.17;;
24559;SDS011;12727;49.934;8.656;2023-08-12T13:35:19;2.42;;;1.30;;
24559;SDS011;12727;49.934;8.656;2023-08-12T13:37:45;1.45;;;1.23;;
24559;SDS011;12727;49.934;8.656;2023-08-12T13:40:11;2.28;;;1.42;;
24559;SDS011;12727;49.934;8.656;2023-08-12T13:42:37;2.08;;;1.25;;
24559;SDS011;12727;49.934;8.656;2023-08-12T13:45:03;3.10;;;1.48;;
24559;SDS011;12727;49.934;8.656;2023-08-12T13:47:29;2.42;;;1.70;;
24559;SDS011;12727;49.934;8.656;2023-08-12T13:49:55;1.85;;;1.23;;
24559;SDS011;12727;49.934;8.656;2023-08-12T13:52:21;1.83;;;1.50;;
24559;SDS011;12727;49.934;8.656;2023-08-12T13:54:46;2.08;;;1.40;;
24559;SDS011;12727;49.934;8.656;2023-08-12T13:57:12;1.88;;;1.30;;
24559;SDS011;12727;49.934;8.656;2023-08-12T13:59:37;2.38;;;1.40;;
24559;SDS011;12727;49.934;8.656;2023-08-12T14:02:05;1.67;;;1.13;;
24559;SDS011;12727;49.934;8.656;2023-08-12T14:04:31;1.63;;;1.40;;
24559;SDS011;12727;49.934;8.656;2023-08-12T14:06:57;3.50;;;1.38;;
24559;SDS011;12727;49.934;8.656;2023-08-12T14:09:22;3.05;;;1.30;;
24559;SDS011;12727;49.934;8.656;2023-08-12T14:11:48;2.30;;;1.30;;
24559;SDS011;12727;49.934;8.656;2023-08-12T14:14:14;2.78;;;1.50;;
24559;SDS011;12727;49.934;8.656;2023-08-12T14:16:39;1.55;;;1.20;;
24559;SDS011;12727;49.934;8.656;2023-08-12T14:19:05;5.07;;;1.75;;
24559;SDS011;12727;49.934;8.656;2023-08-12T14:21:30;1.77;;;1.30;;
24559;SDS011;12727;49.934;8.656;2023-08-12T14:23:56;1.80;;;1.45;;
24559;SDS011;12727;49.934;8.656;2023-08-12T14:26:21;2.70;;;1.60;;
24559;SDS011;12727;49.934;8.656;2023-08-12T14:28:47;1.70;;;1.00;;
24559;SDS011;12727;49.934;8.656;2023-08-12T14:31:12;4.00;;;1.75;;
24559;SDS011;12727;49.934;8.656;2023-08-12T14:33:38;4.30;;;1.52;;
24559;SDS011;12727;49.934;8.656;2023-08-12T14:36:03;2.25;;;1.45;;
24559;SDS011;12727;49.934;8.656;2023-08-12T14:38:29;3.00;;;1.40;;
24559;SDS011;12727;49.934;8.656;2023-08-12T14:40:55;2.13;;;1.50;;
24559;SDS011;12727;49.934;8.656;2023-08-12T14:43:20;2.92;;;1.40;;
24559;SDS011;12727;49.934;8.656;2023-08-12T14:45:46;2.70;;;1.33;;
24559;SDS011;12727;49.934;8.656;2023-08-12T14:48:12;3.60;;;1.42;;
24559;SDS011;12727;49.934;8.656;2023-08-12T14:50:40;2.17;;;1.33;;